Time;durP1;ratioP1;P1;durP2;ratioP2;P2;SDS_P1;SDS_P2;PMS_P1;PMS_P2;Temp;Humidity;BMP_temperature;BMP_pressure;BME280_temperature;BME280_humidity;BME280_pressure;Samples;Min_cycle;Max_cycle;Signal;HPM_P1;HPM_P2
2022/11/18 00:01:06;;;;;;;5.00;2.13;;;;;;;7.61;100.00;99538.81;5038437;28;20045;-70
2022/11/18 00:03:32;;;;;;;11.60;3.38;;;;;;;7.63;100.00;99544.91;5038946;28;20036;-70
2022/11/18 00:05:57;;;;;;;4.32;2.13;;;;;;;7.47;100.00;99542.63;5032881;28;20565;-70
2022/11/18 00:08:24;;;;;;;5.03;2.67;;;;;;;7.45;100.00;99550.13;5040807;28;20461;-70
2022/11/18 00:10:50;;;;;;;3.33;2.20;;;;;;;7.52;100.00;99553.72;5041688;28;20104;-70
2022/11/18 00:16:05;;;;;;;9.15;2.10;;;;;;;7.41;100.00;99551.59;5043289;28;20032;-69
2022/11/18 00:18:30;;;;;;;2.83;2.15;;;;;;;7.49;100.00;99559.56;5041408;28;20131;-69
2022/11/18 00:21:04;;;;;;;2.20;2.00;;;;;;;7.39;100.00;99567.31;5036159;28;20079;-70
2022/11/18 00:23:29;;;;;;;6.90;2.63;;;;;;;7.42;100.00;99567.75;5038547;28;20029;-69
2022/11/18 00:25:54;;;;;;;10.73;2.92;;;;;;;7.51;100.00;99569.22;5044065;28;20428;-70
2022/11/18 00:28:20;;;;;;;12.45;2.85;;;;;;;7.47;100.00;99565.22;5041630;28;20048;-68
2022/11/18 00:30:45;;;;;;;4.88;2.10;;;;;;;7.52;100.00;99570.06;5040946;28;20063;-71
2022/11/18 00:33:10;;;;;;;4.03;2.38;;;;;;;7.52;100.00;99578.25;5041582;28;20029;-68
2022/11/18 00:35:36;;;;;;;5.80;2.70;;;;;;;7.54;100.00;99581.59;5018729;28;20112;-68
2022/11/18 00:38:01;;;;;;;4.68;2.38;;;;;;;7.50;100.00;99581.16;5039302;28;20032;-69
2022/11/18 00:40:26;;;;;;;6.65;2.63;;;;;;;7.50;100.00;99574.88;5036538;28;20026;-68
2022/11/18 00:42:52;;;;;;;5.05;2.58;;;;;;;7.48;100.00;99593.31;5019227;28;20025;-70
2022/11/18 00:45:19;;;;;;;3.38;2.38;;;;;;;7.56;100.00;99584.94;5035790;28;20029;-69
2022/11/18 00:47:44;;;;;;;;;;;;;;;7.41;100.00;99593.31;5039867;28;20034;-69
2022/11/18 00:50:10;;;;;;;6.68;2.60;;;;;;;7.34;100.00;99597.91;5019800;28;20360;-70
2022/11/18 00:52:35;;;;;;;8.43;2.53;;;;;;;7.40;100.00;99607.13;5036762;28;20037;-69
2022/11/18 00:55:01;;;;;;;5.82;2.92;;;;;;;7.37;100.00;99607.56;5024754;28;20087;-69
2022/11/18 00:57:26;;;;;;;6.80;3.20;;;;;;;7.31;100.00;99611.13;5025143;28;20615;-68
2022/11/18 00:59:51;;;;;;;10.15;3.17;;;;;;;7.31;100.00;99608.41;5025466;28;20121;-69
2022/11/18 01:02:17;;;;;;;7.30;2.97;;;;;;;7.36;100.00;99616.78;5027195;28;20091;-68
2022/11/18 01:04:42;;;;;;;5.00;2.97;;;;;;;7.30;100.00;99617.59;5041576;28;20030;-68
2022/11/18 01:07:07;;;;;;;5.57;2.50;;;;;;;7.35;100.00;99620.53;5043661;28;20030;-70
2022/11/18 01:09:33;;;;;;;7.30;2.65;;;;;;;7.23;100.00;99628.47;5043496;28;20497;-70
2022/11/18 01:14:42;;;;;;;7.18;2.58;;;;;;;7.28;100.00;99620.53;5044198;28;20112;-70
2022/11/18 01:17:07;;;;;;;5.25;2.92;;;;;;;7.24;100.00;99629.31;5045069;28;20135;-70
2022/11/18 01:19:33;;;;;;;7.05;2.60;;;;;;;7.23;100.00;99633.06;5046675;28;20025;-69
2022/11/18 01:22:01;;;;;;;5.30;3.10;;;;;;;7.19;100.00;99637.25;5046482;28;20139;-68
2022/11/18 01:24:28;;;;;;;13.60;3.13;;;;;;;7.18;100.00;99639.16;5040875;28;20107;-69
2022/11/18 01:26:53;;;;;;;6.53;3.60;;;;;;;7.17;100.00;99640.19;5047875;28;20024;-69
2022/11/18 01:29:19;;;;;;;8.35;3.55;;;;;;;7.14;100.00;99646.03;5043782;28;20413;-69
2022/11/18 01:31:44;;;;;;;7.75;3.50;;;;;;;7.16;100.00;99640.41;5035583;28;20059;-70
2022/11/18 01:34:09;;;;;;;5.10;3.22;;;;;;;7.17;100.00;99650.25;5038844;28;20034;-70
2022/11/18 01:36:34;;;;;;;9.48;3.65;;;;;;;7.12;100.00;99658.19;5042329;28;20655;-69
2022/11/18 01:39:00;;;;;;;9.88;3.60;;;;;;;7.12;100.00;99655.47;5043848;28;20082;-69
2022/11/18 01:41:25;;;;;;;5.97;3.63;;;;;;;7.10;100.00;99650.22;5038438;28;20025;-69
2022/11/18 01:43:54;;;;;;;6.57;3.97;;;;;;;7.18;100.00;99658.22;5044826;28;20072;-70
2022/11/18 01:46:21;;;;;;;8.07;4.68;;;;;;;7.15;100.00;99663.22;5046024;28;20092;-70
2022/11/18 01:48:51;;;;;;;9.05;3.65;;;;;;;7.17;100.00;99659.25;5038704;28;20045;-70
2022/11/18 01:51:21;;;;;;;7.82;3.63;;;;;;;7.23;100.00;99668.47;5047957;28;20041;-69
2022/11/18 01:54:01;;;;;;;7.28;4.05;;;;;;;7.25;100.00;99666.38;5038642;28;20374;-70
2022/11/18 01:56:36;;;;;;;9.75;3.83;;;;;;;7.26;100.00;99668.09;5040434;28;20060;-69
2022/11/18 01:59:06;;;;;;;5.30;3.50;;;;;;;7.18;100.00;99670.97;5021839;28;20087;-70
2022/11/18 02:01:31;;;;;;;8.73;3.55;;;;;;;7.19;100.00;99672.66;5030253;28;20040;-70
2022/11/18 02:03:57;;;;;;;13.82;4.30;;;;;;;7.14;100.00;99678.72;5043683;28;20037;-69
2022/11/18 02:06:23;;;;;;;10.82;4.15;;;;;;;7.15;100.00;99676.84;5038465;28;20030;-69
2022/11/18 02:08:49;;;;;;;7.38;3.88;;;;;;;7.09;100.00;99681.22;5045065;28;20040;-69
2022/11/18 02:14:02;;;;;;;10.45;4.00;;;;;;;7.06;100.00;99686.22;5042537;28;20392;-70
2022/11/18 02:17:03;;;;;;;7.55;3.50;;;;;;;7.07;100.00;99696.91;5037681;28;20060;-68
2022/11/18 02:19:40;;;;;;;10.43;4.63;;;;;;;7.03;100.00;99692.91;5043197;28;20307;-68
2022/11/18 02:22:28;;;;;;;;;;;;;;;7.06;100.00;99697.13;5037014;28;20059;-69
2022/11/18 02:25:19;;;;;;;9.25;4.10;;;;;;;7.11;100.00;99703.63;5027231;28;20280;-68
2022/11/18 02:28:09;;;;;;;14.48;4.47;;;;;;;7.06;100.00;99710.72;5038850;28;20079;-69
2022/11/18 02:30:52;;;;;;;10.15;4.65;;;;;;;7.09;100.00;99713.03;5046406;28;20063;-69
2022/11/18 02:33:58;;;;;;;9.43;3.90;;;;;;;7.07;100.00;99709.69;5043503;28;20045;-69
2022/11/18 02:36:31;;;;;;;9.65;4.40;;;;;;;7.08;100.00;99714.94;4967175;28;20055;-70
2022/11/18 02:39:04;;;;;;;10.20;4.45;;;;;;;7.03;100.00;99719.28;5043136;28;20136;-69
2022/11/18 02:41:32;;;;;;;14.18;4.50;;;;;;;7.04;100.00;99718.28;5045242;28;20040;-69
2022/11/18 02:44:04;;;;;;;10.07;4.22;;;;;;;7.01;100.00;99721.38;5038717;28;20029;-69
2022/11/18 02:46:32;;;;;;;8.98;4.75;;;;;;;6.99;100.00;99716.13;5047797;28;20025;-69
2022/11/18 02:48:59;;;;;;;12.75;4.90;;;;;;;7.00;100.00;99725.16;5038915;28;20052;-69
2022/11/18 02:51:27;;;;;;;;;;;;;;;7.03;100.00;99728.31;5046875;28;21629;-68
2022/11/18 02:53:58;;;;;;;9.30;4.28;;;;;;;6.97;100.00;99725.53;5036816;28;19925;-69
2022/11/18 02:56:26;;;;;;;8.98;4.40;;;;;;;6.96;100.00;99732.03;5043357;28;20030;-68
2022/11/18 02:58:51;;;;;;;11.85;4.45;;;;;;;7.03;100.00;99727.44;5040030;28;20113;-69
2022/11/18 03:01:27;;;;;;;9.48;4.68;;;;;;;6.99;100.00;99732.47;5044252;28;20033;-70
2022/11/18 03:03:52;;;;;;;15.27;4.05;;;;;;;6.98;100.00;99728.06;5038961;28;20033;-70
2022/11/18 03:06:38;;;;;;;8.82;4.72;;;;;;;7.04;100.00;99740.88;5043582;28;20487;-72
2022/11/18 03:09:03;;;;;;;10.07;5.13;;;;;;;7.00;100.00;99736.88;5044739;28;20136;-72
2022/11/18 03:11:50;;;;;;;14.88;5.43;;;;;;;6.89;100.00;99739.34;5027539;28;20112;-72
2022/11/18 03:14:23;;;;;;;12.05;4.75;;;;;;;6.99;100.00;99745.25;5045083;28;20219;-72
2022/11/18 03:17:02;;;;;;;10.07;5.38;;;;;;;6.99;100.00;99740.63;5030325;28;20068;-72
2022/11/18 03:19:46;;;;;;;10.30;5.30;;;;;;;6.87;100.00;99744.97;5044018;28;20037;-72
2022/11/18 03:22:25;;;;;;;11.32;5.10;;;;;;;6.76;100.00;99745.53;5042626;28;20029;-72
2022/11/18 03:25:04;;;;;;;10.00;5.15;;;;;;;6.82;100.00;99747.44;5029180;28;20488;-72
2022/11/18 03:27:59;;;;;;;13.85;5.18;;;;;;;6.86;100.00;99754.19;5038142;28;20071;-72
2022/11/18 03:30:25;;;;;;;6.95;5.05;;;;;;;6.83;100.00;99762.72;5000946;28;20688;-72
2022/11/18 03:32:58;;;;;;;11.68;5.75;;;;;;;6.89;100.00;99755.66;5039545;28;20032;-72
2022/11/18 03:35:26;;;;;;;9.85;5.68;;;;;;;6.85;100.00;99759.81;5040071;28;20488;-72
2022/11/18 03:37:58;;;;;;;9.77;6.32;;;;;;;6.83;100.00;99751.84;5024709;28;20045;-71
2022/11/18 03:40:28;;;;;;;11.38;5.28;;;;;;;6.76;100.00;99758.28;5042335;28;20112;-72
2022/11/18 03:43:01;;;;;;;12.32;4.88;;;;;;;6.67;100.00;99759.50;5023353;28;20067;-72
2022/11/18 03:45:38;;;;;;;15.25;5.68;;;;;;;6.66;100.00;99761.38;5042728;28;20065;-72
2022/11/18 03:48:13;;;;;;;10.32;5.43;;;;;;;6.73;100.00;99772.31;5029508;28;20025;-72
2022/11/18 03:50:44;;;;;;;14.55;6.00;;;;;;;6.72;100.00;99776.91;5041260;28;20091;-72
2022/11/18 03:53:11;;;;;;;10.90;5.30;;;;;;;6.68;100.00;99775.59;5041739;28;20063;-72
2022/11/18 03:55:44;;;;;;;10.75;5.25;;;;;;;6.66;100.00;99782.28;5036048;28;20120;-72
2022/11/18 03:58:24;;;;;;;8.68;4.90;;;;;;;6.61;100.00;99791.06;5037277;28;20025;-72
2022/11/18 04:00:55;;;;;;;13.57;5.47;;;;;;;6.58;100.00;99786.00;5028029;28;20029;-72
2022/11/18 04:03:21;;;;;;;8.70;4.90;;;;;;;6.59;100.00;99790.41;5023034;28;20067;-72
2022/11/18 04:05:55;;;;;;;16.70;5.82;;;;;;;6.66;100.00;99793.16;5027183;28;20060;-71
2022/11/18 04:08:28;;;;;;;8.30;4.93;;;;;;;6.60;100.00;99793.97;5039934;28;20029;-72
2022/11/18 04:12:01;;;;;;;9.50;5.18;;;;;;;6.63;100.00;99801.75;5024825;28;20128;-72
2022/11/18 04:14:06;;;;;;;12.45;5.13;;;;;;;6.66;100.00;99801.31;5038691;28;20121;-72
2022/11/18 04:16:39;;;;;;;14.05;5.05;;;;;;;6.60;100.00;99805.69;5044336;28;20029;-72
2022/11/18 04:19:04;;;;;;;11.35;5.10;;;;;;;6.55;100.00;99815.47;5025895;28;20143;-72
2022/11/18 04:21:29;;;;;;;8.55;4.78;;;;;;;6.47;100.00;99815.63;5046013;28;20029;-72
2022/11/18 04:23:54;;;;;;;11.77;5.38;;;;;;;6.57;100.00;99818.84;5040939;28;20039;-72
2022/11/18 04:26:20;;;;;;;9.07;5.30;;;;;;;6.56;100.00;99819.91;5027865;28;20396;-72
2022/11/18 04:28:45;;;;;;;14.43;5.47;;;;;;;6.54;100.00;99822.81;5022372;28;20033;-72
2022/11/18 04:31:10;;;;;;;19.20;5.97;;;;;;;6.58;100.00;99824.06;5038309;28;20093;-72
2022/11/18 04:33:36;;;;;;;6.38;4.60;;;;;;;6.58;100.00;99823.25;5038753;28;20048;-72
2022/11/18 04:36:01;;;;;;;8.65;4.78;;;;;;;6.59;100.00;99833.09;5029728;28;20037;-72
2022/11/18 04:38:26;;;;;;;7.95;4.35;;;;;;;6.60;100.00;99837.50;5041614;28;20068;-72
2022/11/18 04:40:51;;;;;;;6.95;4.80;;;;;;;6.60;100.00;99835.63;5047838;28;20547;-72
2022/11/18 04:43:17;;;;;;;8.68;5.20;;;;;;;6.60;100.00;99840.22;5047847;28;20029;-72
2022/11/18 04:45:42;;;;;;;11.98;4.75;;;;;;;6.57;100.00;99841.44;5044140;28;20112;-72
2022/11/18 04:48:07;;;;;;;8.80;4.32;;;;;;;6.60;100.00;99848.38;5022077;28;20060;-72
2022/11/18 04:50:32;;;;;;;10.43;4.50;;;;;;;6.64;100.00;99845.09;5030209;28;20044;-72
2022/11/18 04:52:58;;;;;;;10.85;5.00;;;;;;;6.66;100.00;99853.88;5045379;28;20108;-72
2022/11/18 04:55:23;;;;;;;10.75;5.00;;;;;;;6.71;100.00;99854.13;5029580;28;20080;-72
2022/11/18 04:57:48;;;;;;;10.68;4.93;;;;;;;6.69;100.00;99858.94;5047826;28;20107;-72
2022/11/18 05:00:14;;;;;;;12.30;4.30;;;;;;;6.72;100.00;99858.53;5045193;28;20041;-72
2022/11/18 05:02:39;;;;;;;10.18;4.55;;;;;;;6.74;100.00;99856.44;5046211;28;20025;-72
2022/11/18 05:05:05;;;;;;;7.60;4.60;;;;;;;6.70;100.00;99866.06;5048716;28;20035;-72
2022/11/18 05:07:30;;;;;;;12.52;4.30;;;;;;;6.68;100.00;99868.13;5042328;28;20487;-72
2022/11/18 05:09:56;;;;;;;10.02;4.22;;;;;;;6.81;100.00;99862.81;5044414;28;20032;-72
2022/11/18 05:15:05;;;;;;;8.40;4.30;;;;;;;6.69;100.00;99872.53;5045847;28;20777;-72
2022/11/18 05:17:33;;;;;;;12.75;3.88;;;;;;;6.65;100.00;99871.25;5039826;28;20115;-72
2022/11/18 05:19:59;;;;;;;7.10;4.90;;;;;;;6.64;100.00;99877.72;5027427;28;20660;-73
2022/11/18 05:22:24;;;;;;;9.40;4.43;;;;;;;6.68;100.00;99878.19;5047342;28;20108;-72
2022/11/18 05:24:49;;;;;;;9.60;3.70;;;;;;;6.67;100.00;99887.38;5047067;28;20033;-72
2022/11/18 05:27:15;;;;;;;9.98;3.78;;;;;;;6.72;100.00;99879.47;5047515;28;20090;-72
2022/11/18 05:29:40;;;;;;;7.05;3.80;;;;;;;6.71;100.00;99888.66;5041464;28;20025;-72
2022/11/18 05:32:06;;;;;;;11.73;4.22;;;;;;;6.64;100.00;99891.34;5043273;28;20033;-72
2022/11/18 05:34:31;;;;;;;11.00;3.80;;;;;;;6.71;100.00;99894.94;5047901;28;20115;-72
2022/11/18 05:36:57;;;;;;;9.10;4.00;;;;;;;6.71;100.00;99894.09;5044997;28;20152;-73
2022/11/18 05:39:25;;;;;;;11.32;4.78;;;;;;;6.69;100.00;99907.06;5038219;28;20120;-73
2022/11/18 05:44:35;;;;;;;13.65;4.15;;;;;;;6.84;100.00;99902.38;5041786;28;20063;-73
2022/11/18 05:47:00;;;;;;;9.18;4.28;;;;;;;6.80;100.00;99909.25;5044802;28;20029;-73
2022/11/18 05:49:28;;;;;;;15.88;4.53;;;;;;;6.76;100.00;99906.09;5024006;28;20479;-72
2022/11/18 05:51:54;;;;;;;9.82;4.32;;;;;;;6.68;100.00;99913.56;5022217;28;20021;-73
2022/11/18 05:54:20;;;;;;;10.18;4.05;;;;;;;6.69;100.00;99916.09;5041275;28;20512;-73
2022/11/18 05:56:45;;;;;;;8.48;3.88;;;;;;;6.63;100.00;99918.72;5041789;28;20125;-74
2022/11/18 05:59:12;;;;;;;14.48;3.80;;;;;;;6.61;100.00;99921.63;5042464;28;20392;-73
2022/11/18 06:02:00;;;;;;;7.95;4.28;;;;;;;6.60;100.00;99924.56;5037341;28;20020;-74
2022/11/18 06:04:36;;;;;;;10.65;4.03;;;;;;;6.70;100.00;99923.19;5038973;28;20079;-73
2022/11/18 06:07:07;;;;;;;12.10;4.00;;;;;;;6.64;100.00;99934.00;5026829;28;20072;-73
2022/11/18 06:09:36;;;;;;;9.85;4.30;;;;;;;6.62;100.00;99930.66;5039961;28;20030;-73
2022/11/18 06:12:03;;;;;;;8.68;3.58;;;;;;;6.61;100.00;99931.66;5041198;28;20030;-73
2022/11/18 06:14:35;;;;;;;18.52;4.82;;;;;;;6.59;100.00;99934.59;5043050;28;20030;-74
2022/11/18 06:17:07;;;;;;;9.30;4.35;;;;;;;6.61;100.00;99937.09;5041099;28;20033;-74
2022/11/18 06:19:33;;;;;;;8.18;4.45;;;;;;;6.55;100.00;99940.59;5045452;28;20131;-74
2022/11/18 06:21:59;;;;;;;11.48;4.68;;;;;;;6.64;100.00;99944.91;5024230;28;20025;-73
2022/11/18 06:24:25;;;;;;;7.72;4.38;;;;;;;6.65;100.00;99949.28;5042729;28;20032;-73
2022/11/18 06:26:50;;;;;;;8.48;4.32;;;;;;;6.57;100.00;99941.28;5038301;28;20568;-74
2022/11/18 06:29:18;;;;;;;13.35;4.57;;;;;;;6.55;100.00;99959.66;5039659;28;20028;-73
2022/11/18 06:31:43;;;;;;;9.68;4.30;;;;;;;6.63;100.00;99957.66;5024268;28;20024;-73
2022/11/18 06:34:09;;;;;;;9.32;4.40;;;;;;;6.66;100.00;99959.13;5044034;28;20036;-74
2022/11/18 06:36:34;;;;;;;13.07;4.50;;;;;;;6.56;100.00;99969.53;5025594;28;20083;-73
2022/11/18 06:39:06;;;;;;;12.43;4.00;;;;;;;6.55;100.00;99970.53;5041799;28;20041;-73
2022/11/18 06:41:32;;;;;;;10.88;5.07;;;;;;;6.59;100.00;99977.28;5039590;28;20587;-74
2022/11/18 06:43:58;;;;;;;14.70;4.80;;;;;;;6.51;100.00;99974.69;5039363;28;20029;-73
2022/11/18 06:49:07;;;;;;;7.25;4.40;;;;;;;6.61;100.00;99988.81;5041277;28;20076;-74
2022/11/18 06:51:33;;;;;;;15.00;4.57;;;;;;;6.70;100.00;99983.06;5034086;28;20069;-73
2022/11/18 06:53:58;;;;;;;7.28;4.20;;;;;;;6.68;100.00;99990.56;5038574;28;20033;-73
2022/11/18 06:56:23;;;;;;;11.43;4.43;;;;;;;6.61;100.00;99999.69;5040642;28;20029;-73
2022/11/18 06:58:57;;;;;;;8.23;4.57;;;;;;;6.60;100.00;100000.72;5018795;28;20125;-73
2022/11/18 07:01:25;;;;;;;7.85;4.63;;;;;;;6.57;100.00;100006.56;5033376;28;20481;-73
2022/11/18 07:03:51;;;;;;;14.38;4.50;;;;;;;6.56;100.00;100013.88;5039108;28;20025;-74
2022/11/18 07:06:18;;;;;;;10.13;5.35;;;;;;;6.54;100.00;100015.97;5040342;28;20488;-73
2022/11/18 07:08:44;;;;;;;12.00;4.63;;;;;;;6.59;100.00;100023.53;5037538;28;20076;-73
2022/11/18 07:11:12;;;;;;;6.78;4.10;;;;;;;6.61;100.00;100025.03;5042813;28;20300;-73
2022/11/18 07:13:38;;;;;;;17.50;4.32;;;;;;;6.58;100.00;100033.56;5018050;28;20481;-73
2022/11/18 07:16:06;;;;;;;11.07;4.75;;;;;;;6.63;100.00;100030.28;5043931;28;20039;-73
2022/11/18 07:18:33;;;;;;;9.23;4.10;;;;;;;6.64;100.00;100037.41;5022189;28;20522;-73
2022/11/18 07:21:25;;;;;;;9.05;4.68;;;;;;;6.71;100.00;100044.63;5037157;28;20439;-73
2022/11/18 07:23:50;;;;;;;19.40;5.03;;;;;;;6.70;100.00;100048.38;5040251;28;20107;-73
2022/11/18 07:26:16;;;;;;;14.68;5.78;;;;;;;6.76;100.00;100049.47;5041567;28;20029;-73
2022/11/18 07:28:42;;;;;;;15.47;4.93;;;;;;;6.85;100.00;100056.47;5023161;28;20036;-73
2022/11/18 07:31:10;;;;;;;14.00;4.53;;;;;;;6.86;100.00;100053.56;5038701;28;20393;-73
2022/11/18 07:33:36;;;;;;;13.68;5.20;;;;;;;6.93;100.00;100059.06;5025269;28;20033;-70
2022/11/18 07:36:10;;;;;;;12.00;4.65;;;;;;;6.96;100.00;100055.97;5041162;28;20033;-73
2022/11/18 07:38:36;;;;;;;14.40;4.13;;;;;;;6.99;100.00;100072.75;5041011;28;20024;-73
2022/11/18 07:41:10;;;;;;;9.73;4.05;;;;;;;7.05;100.00;100076.59;5033407;28;20452;-71
2022/11/18 07:43:36;;;;;;;13.77;4.65;;;;;;;7.11;100.00;100075.81;5039367;28;20160;-74
2022/11/18 07:46:28;;;;;;;12.63;4.40;;;;;;;7.21;100.00;100087.25;5037731;28;20120;-71
2022/11/18 07:48:56;;;;;;;10.77;5.63;;;;;;;7.23;100.00;100079.72;5033593;28;20041;-73
2022/11/18 07:51:30;;;;;;;14.20;4.97;;;;;;;7.19;100.00;100083.84;5038471;28;20125;-73
2022/11/18 07:53:56;;;;;;;17.55;4.25;;;;;;;7.28;100.00;100091.72;5032635;28;20061;-73
2022/11/18 07:56:21;;;;;;;8.05;4.25;;;;;;;7.21;100.00;100093.50;5038373;28;20064;-73
2022/11/18 07:58:51;;;;;;;12.95;4.70;;;;;;;7.24;100.00;100093.13;5038373;28;20045;-73
2022/11/18 08:01:19;;;;;;;11.38;4.60;;;;;;;7.25;100.00;100102.13;5027693;28;20036;-73
2022/11/18 08:03:45;;;;;;;14.30;4.82;;;;;;;7.31;100.00;100104.09;5042591;28;20028;-73
2022/11/18 08:06:13;;;;;;;7.45;4.40;;;;;;;7.38;100.00;100105.00;5036092;28;20120;-73
2022/11/18 08:08:39;;;;;;;10.02;4.30;;;;;;;7.47;100.00;100110.13;5041473;28;20033;-74
2022/11/18 08:11:07;;;;;;;16.52;4.50;;;;;;;7.63;100.00;100118.03;5034019;28;20453;-74
2022/11/18 08:13:33;;;;;;;8.15;3.95;;;;;;;7.61;100.00;100113.81;5032062;28;20034;-74
2022/11/18 08:16:00;;;;;;;15.43;4.83;;;;;;;7.66;100.00;100119.50;5044867;28;20032;-75
2022/11/18 08:18:27;;;;;;;12.87;4.73;;;;;;;7.65;100.00;100118.69;5049179;28;20664;-73
2022/11/18 08:20:52;;;;;;;12.50;5.65;;;;;;;7.77;100.00;100127.16;5046188;28;20273;-73
2022/11/18 08:23:17;;;;;;;8.55;4.43;;;;;;;7.70;100.00;100127.09;5043900;28;20022;-73
2022/11/18 08:25:44;;;;;;;10.98;4.70;;;;;;;7.65;100.00;100120.56;5047609;28;20124;-73
2022/11/18 08:28:10;;;;;;;16.98;4.93;;;;;;;7.69;100.00;100132.75;5047598;28;20240;-74
2022/11/18 08:30:36;;;;;;;22.67;5.50;;;;;;;7.74;100.00;100144.75;5047460;28;20067;-74
2022/11/18 08:33:02;;;;;;;9.18;4.88;;;;;;;7.77;100.00;100140.78;5048364;28;20305;-73
2022/11/18 08:35:29;;;;;;;12.18;5.03;;;;;;;7.86;100.00;100145.06;5046046;28;20133;-74
2022/11/18 08:37:54;;;;;;;;;;;;;;;8.00;100.00;100149.59;5043867;28;20028;-74
2022/11/18 08:40:20;;;;;;;9.65;4.50;;;;;;;8.07;100.00;100150.47;5045289;28;19924;-73
2022/11/18 08:42:45;;;;;;;15.45;4.60;;;;;;;8.17;100.00;100143.63;5042728;28;20102;-74
2022/11/18 08:45:10;;;;;;;8.90;4.22;;;;;;;8.28;100.00;100151.28;5041551;28;20033;-74
2022/11/18 08:47:36;;;;;;;20.30;5.07;;;;;;;8.40;100.00;100146.13;5043552;28;20358;-73
2022/11/18 08:50:04;;;;;;;11.88;5.57;;;;;;;8.35;100.00;100141.28;5043199;28;20029;-73
2022/11/18 08:52:29;;;;;;;16.63;4.40;;;;;;;8.45;100.00;100149.09;5045396;28;20045;-73
2022/11/18 08:54:55;;;;;;;11.30;4.57;;;;;;;8.50;100.00;100146.59;5027107;28;20116;-73
2022/11/18 08:57:20;;;;;;;12.83;4.20;;;;;;;8.48;100.00;100149.53;5028557;28;20392;-74
2022/11/18 08:59:45;;;;;;;17.83;4.50;;;;;;;8.45;100.00;100154.56;5043911;28;20029;-74
2022/11/18 09:02:20;;;;;;;12.65;4.40;;;;;;;8.42;100.00;100152.22;5046612;28;20037;-73
2022/11/18 09:04:50;;;;;;;13.85;4.80;;;;;;;8.43;100.00;100156.66;5044389;28;20033;-74
2022/11/18 09:07:16;;;;;;;8.20;4.00;;;;;;;8.48;100.00;100163.16;5048938;28;20434;-73
2022/11/18 09:09:41;;;;;;;10.05;4.43;;;;;;;8.43;100.00;100156.66;5031246;28;20495;-74
2022/11/18 09:12:08;;;;;;;15.70;3.92;;;;;;;8.36;100.00;100161.19;5026592;28;20132;-73
2022/11/18 09:14:33;;;;;;;14.68;4.47;;;;;;;8.31;100.00;100164.53;5045398;28;20031;-73
2022/11/18 09:16:59;;;;;;;10.30;4.15;;;;;;;8.33;100.00;100167.06;5045013;28;20045;-73
2022/11/18 09:19:24;;;;;;;11.27;4.60;;;;;;;8.39;100.00;100171.72;5043197;28;20049;-73
2022/11/18 09:21:49;;;;;;;10.63;4.72;;;;;;;8.41;100.00;100175.09;5039488;28;20050;-73
2022/11/18 09:24:15;;;;;;;19.35;4.80;;;;;;;8.43;100.00;100178.47;5041168;28;20047;-74
2022/11/18 09:26:40;;;;;;;13.88;4.20;;;;;;;8.50;100.00;100182.91;5042054;28;20228;-71
2022/11/18 09:29:07;;;;;;;19.98;4.82;;;;;;;8.52;100.00;100183.56;5028052;28;20025;-72
2022/11/18 09:31:33;;;;;;;14.48;4.45;;;;;;;8.62;100.00;100191.41;5040929;28;20025;-72
2022/11/18 09:33:59;;;;;;;6.80;3.63;;;;;;;8.60;100.00;100182.56;5037198;28;20079;-72
2022/11/18 09:36:25;;;;;;;13.68;4.40;;;;;;;8.56;100.00;100194.94;5024556;28;20369;-72
2022/11/18 09:38:51;;;;;;;11.88;4.35;;;;;;;8.58;100.00;100193.69;5037882;28;20649;-72
2022/11/18 09:41:31;;;;;;;11.88;4.68;;;;;;;8.58;100.00;100198.28;5039173;28;20480;-72
2022/11/18 09:44:05;;;;;;;15.20;4.57;;;;;;;8.59;100.00;100200.81;5038686;28;20033;-72
2022/11/18 09:46:45;;;;;;;13.38;4.35;;;;;;;8.57;100.00;100211.13;5036129;28;20025;-72
2022/11/18 09:49:17;;;;;;;15.18;4.53;;;;;;;8.60;100.00;100212.59;5036951;28;20040;-71
2022/11/18 09:51:45;;;;;;;10.63;3.92;;;;;;;8.62;100.00;100210.50;5023076;28;20033;-72
2022/11/18 09:54:19;;;;;;;12.02;4.50;;;;;;;8.64;100.00;100227.53;5026080;28;20543;-72
2022/11/18 09:56:45;;;;;;;10.65;5.03;;;;;;;8.73;100.00;100218.97;5038924;28;20111;-72
2022/11/18 09:59:13;;;;;;;11.33;3.80;;;;;;;8.72;100.00;100227.38;5044989;28;20044;-72
2022/11/18 10:01:40;;;;;;;6.70;3.22;;;;;;;8.79;100.00;100217.31;5023862;28;20119;-72
2022/11/18 10:04:05;;;;;;;15.63;4.30;;;;;;;8.78;100.00;100226.56;5039703;28;20413;-72
2022/11/18 10:06:33;;;;;;;13.77;4.53;;;;;;;8.86;100.00;100229.16;5031878;28;20089;-72
2022/11/18 10:09:29;;;;;;;14.20;4.53;;;;;;;8.92;100.00;100228.34;5037090;28;20388;-72
2022/11/18 10:12:22;;;;;;;12.48;4.25;;;;;;;9.02;100.00;100231.53;5022130;28;20033;-72
2022/11/18 10:15:12;;;;;;;8.45;4.57;;;;;;;9.15;100.00;100239.78;5041766;28;20025;-73
2022/11/18 10:18:03;;;;;;;20.52;4.38;;;;;;;9.20;100.00;100242.75;5042570;28;20033;-72
2022/11/18 10:20:59;;;;;;;11.50;4.63;;;;;;;9.17;100.00;100246.75;5021116;28;20045;-72
2022/11/18 10:23:49;;;;;;;12.10;5.07;;;;;;;9.25;100.00;100251.19;5024697;28;20025;-72
2022/11/18 10:26:14;;;;;;;12.40;4.75;;;;;;;9.28;100.00;100250.81;5042209;28;20056;-72
2022/11/18 10:28:39;;;;;;;19.67;5.57;;;;;;;9.41;100.00;100246.22;5036564;28;20461;-72
2022/11/18 10:31:08;;;;;;;17.90;3.92;;;;;;;9.46;100.00;100243.69;5039323;28;20044;-72
2022/11/18 10:33:34;;;;;;;20.00;4.82;;;;;;;9.64;100.00;100254.91;5041919;28;20032;-72
2022/11/18 10:36:25;;;;;;;16.65;5.45;;;;;;;9.84;100.00;100253.09;5041543;28;20033;-72
2022/11/18 10:39:06;;;;;;;10.75;4.28;;;;;;;9.94;100.00;100252.69;5039683;28;20036;-72
2022/11/18 10:41:39;;;;;;;8.40;3.72;;;;;;;10.08;100.00;100252.53;5039628;28;20033;-73
2022/11/18 10:44:04;;;;;;;10.10;4.82;;;;;;;10.19;100.00;100256.53;5039818;28;20044;-73
2022/11/18 10:46:34;;;;;;;11.60;6.03;;;;;;;10.25;100.00;100258.44;5022789;28;20645;-72
2022/11/18 10:49:08;;;;;;;17.23;6.03;;;;;;;10.27;100.00;100261.81;5039810;28;20116;-73
2022/11/18 10:51:56;;;;;;;17.50;6.70;;;;;;;10.25;98.77;100263.91;5038871;28;20048;-73
2022/11/18 10:54:22;;;;;;;14.05;6.15;;;;;;;10.33;99.26;100255.47;5039237;28;20029;-72
2022/11/18 10:56:57;;;;;;;13.53;7.47;;;;;;;10.38;99.04;100262.03;5038665;28;20029;-72
2022/11/18 10:59:30;;;;;;;18.40;7.40;;;;;;;10.30;100.00;100259.47;5025224;28;20286;-72
2022/11/18 11:02:09;;;;;;;13.13;7.30;;;;;;;10.31;99.58;100265.81;5041576;28;20067;-72
2022/11/18 11:04:36;;;;;;;17.10;8.13;;;;;;;10.25;99.33;100272.94;5041609;28;20025;-72
2022/11/18 11:07:24;;;;;;;20.50;7.60;;;;;;;10.35;98.56;100267.09;5042433;28;20566;-72
2022/11/18 11:10:12;;;;;;;;;;;;;;;10.30;98.95;100275.91;5041347;28;20399;-72
2022/11/18 11:12:48;;;;;;;13.05;6.80;;;;;;;10.28;99.68;100272.53;5026824;28;19968;-72
2022/11/18 11:15:20;;;;;;;15.52;6.45;;;;;;;10.21;99.78;100284.53;5039633;28;20029;-72
2022/11/18 11:18:40;;;;;;;13.63;6.65;;;;;;;10.25;100.00;100283.91;5041903;28;20077;-72
2022/11/18 11:21:19;;;;;;;15.65;7.05;;;;;;;10.16;100.00;100278.84;5040401;28;20045;-72
2022/11/18 11:23:45;;;;;;;10.65;6.30;;;;;;;10.22;99.88;100283.47;5041282;28;20047;-72
2022/11/18 11:26:48;;;;;;;22.60;7.72;;;;;;;10.09;99.41;100288.94;5039160;28;20021;-72
2022/11/18 11:29:35;;;;;;;20.10;6.22;;;;;;;10.07;99.53;100289.16;5039079;28;20025;-73
2022/11/18 11:32:24;;;;;;;17.02;6.25;;;;;;;10.09;99.71;100294.41;5035824;28;20037;-72
2022/11/18 11:35:11;;;;;;;13.55;5.95;;;;;;;10.14;100.00;100291.91;5039386;28;20040;-72
2022/11/18 11:37:48;;;;;;;13.13;4.88;;;;;;;10.12;99.52;100296.72;5043251;28;20041;-73
2022/11/18 11:40:19;;;;;;;;;;;;;;;10.20;100.00;100302.00;5041806;28;20043;-72
2022/11/18 11:43:14;;;;;;;16.75;5.85;;;;;;;10.24;99.87;100304.13;5040002;28;19924;-73
2022/11/18 11:46:04;;;;;;;18.90;6.00;;;;;;;10.21;99.62;100298.22;5038149;28;20060;-72
2022/11/18 11:49:02;;;;;;;14.02;5.55;;;;;;;10.17;100.00;100307.91;5037866;28;20082;-72
2022/11/18 11:51:39;;;;;;;13.80;5.20;;;;;;;10.29;99.00;100307.06;5008818;28;20042;-72
2022/11/18 11:54:22;;;;;;;16.53;5.23;;;;;;;10.10;99.59;100309.78;5044088;28;20041;-73
2022/11/18 11:56:48;;;;;;;13.60;5.40;;;;;;;10.13;100.00;100318.41;5035483;28;20277;-72
2022/11/18 11:59:31;;;;;;;16.73;6.30;;;;;;;10.21;98.47;100309.16;5033827;28;20507;-72